createdAt,value
2016-11-22T00:01:06.116Z,13.35
2016-11-22T00:02:17.344Z,13.36
2016-11-22T00:03:28.384Z,13.39
2016-11-22T00:04:39.609Z,13.42
2016-11-22T00:05:50.696Z,13.47
2016-11-22T00:07:01.926Z,13.55
2016-11-22T00:08:12.955Z,13.66
2016-11-22T00:09:23.975Z,13.51
2016-11-22T00:10:35.008Z,13.42
2016-11-22T00:11:46.095Z,13.54
2016-11-22T00:12:57.131Z,13.57
2016-11-22T00:14:08.163Z,13.5
2016-11-22T00:15:19.398Z,13.45
2016-11-22T00:16:30.435Z,13.47
2016-11-22T00:17:41.513Z,13.51
2016-11-22T00:18:52.546Z,13.65
2016-11-22T00:20:03.568Z,13.57
2016-11-22T00:21:14.630Z,13.48
2016-11-22T00:22:25.864Z,13.45
2016-11-22T00:23:36.953Z,13.45
2016-11-22T00:24:47.985Z,13.44
2016-11-22T00:25:59.424Z,13.44
2016-11-22T00:27:10.656Z,13.4
2016-11-22T00:28:22.130Z,13.51
2016-11-22T00:29:33.244Z,13.39
2016-11-22T00:30:44.279Z,13.44
2016-11-22T00:31:55.317Z,13.37
2016-11-22T00:33:06.349Z,13.39
2016-11-22T00:34:17.392Z,13.37
2016-11-22T00:35:28.477Z,13.36
2016-11-22T00:36:39.497Z,13.39
2016-11-22T00:37:50.937Z,13.31
2016-11-22T00:39:01.965Z,13.27
2016-11-22T00:40:13.206Z,13.27
2016-11-22T00:41:24.508Z,13.16
2016-11-22T00:42:35.558Z,13.2
2016-11-22T00:43:46.588Z,13.28
2016-11-22T00:44:57.622Z,13.25
2016-11-22T00:46:08.679Z,13.36
2016-11-22T00:47:19.755Z,13.28
2016-11-22T00:48:30.985Z,13.39
2016-11-22T00:49:42.217Z,13.29
2016-11-22T00:50:53.261Z,13.42
2016-11-22T00:52:04.299Z,13.37
2016-11-22T00:53:15.404Z,13.4
2016-11-22T00:54:26.427Z,13.29
2016-11-22T00:55:37.474Z,13.39
2016-11-22T00:56:48.713Z,13.24
2016-11-22T00:57:59.748Z,13.32
2016-11-22T00:59:10.860Z,13.35
2016-11-22T01:00:21.939Z,13.36
2016-11-22T01:01:33.175Z,13.28
2016-11-22T01:02:44.203Z,13.4
2016-11-22T01:03:55.230Z,13.27
2016-11-22T01:05:06.302Z,13.27
2016-11-22T01:06:17.323Z,13.37
2016-11-22T01:07:28.379Z,13.37
2016-11-22T01:08:39.412Z,13.39
2016-11-22T01:09:50.451Z,13.32
2016-11-22T01:11:01.472Z,13.4
2016-11-22T01:12:12.498Z,13.37
2016-11-22T01:13:23.539Z,13.21
2016-11-22T01:14:34.563Z,13.35
2016-11-22T01:15:45.640Z,13.29
2016-11-22T01:16:56.673Z,13.28
2016-11-22T01:18:07.903Z,13.27
2016-11-22T01:19:18.931Z,13.28
2016-11-22T01:20:29.990Z,13.31
2016-11-22T01:21:41.067Z,13.2
2016-11-22T01:22:52.105Z,13.25
2016-11-22T01:24:03.351Z,13.17
2016-11-22T01:25:14.388Z,13.16
2016-11-22T01:26:25.416Z,13.14
2016-11-22T01:27:36.915Z,13.14
2016-11-22T01:28:48.153Z,13.13
2016-11-22T01:29:59.181Z,13.13
2016-11-22T01:31:10.222Z,13.13
2016-11-22T01:32:21.262Z,13.17
2016-11-22T01:33:32.354Z,13.1
2016-11-22T01:34:43.393Z,13.11
2016-11-22T01:35:54.433Z,13.07
2016-11-22T01:37:05.678Z,13.09
2016-11-22T01:38:16.721Z,13.09
2016-11-22T01:39:27.809Z,13.09
2016-11-22T01:40:38.844Z,13.09
2016-11-22T01:41:49.886Z,13.03
2016-11-22T01:43:00.911Z,13.07
2016-11-22T01:44:11.945Z,13.02
2016-11-22T01:45:23.036Z,13.07
2016-11-22T01:46:34.070Z,13.02
2016-11-22T01:47:45.101Z,13.02
2016-11-22T01:48:56.132Z,13.07
2016-11-22T01:50:07.160Z,12.99
2016-11-22T01:51:18.256Z,13.03
2016-11-22T01:52:29.285Z,13.06
2016-11-22T01:53:40.347Z,13.02
2016-11-22T01:54:51.375Z,13.07
2016-11-22T01:56:02.609Z,13.01
2016-11-22T01:57:13.696Z,13.01
2016-11-22T01:58:24.727Z,13.09
2016-11-22T01:59:35.759Z,13.01
2016-11-22T02:00:46.784Z,13.02
2016-11-22T02:01:58.057Z,13.02
2016-11-22T02:03:09.126Z,12.95
2016-11-22T02:04:20.177Z,12.99
2016-11-22T02:05:31.245Z,12.92
2016-11-22T02:06:42.287Z,12.88
2016-11-22T02:07:53.520Z,12.96
2016-11-22T02:09:04.612Z,12.83
2016-11-22T02:10:15.673Z,12.89
2016-11-22T02:11:26.744Z,12.94
2016-11-22T02:12:37.993Z,12.92
2016-11-22T02:13:49.024Z,12.92
2016-11-22T02:15:00.142Z,12.99
2016-11-22T02:16:11.182Z,13.02
2016-11-22T02:17:22.207Z,13.01
2016-11-22T02:18:33.245Z,13.03
2016-11-22T02:19:44.273Z,13.03
2016-11-22T02:20:55.566Z,13.01
2016-11-22T02:22:06.587Z,13.06
2016-11-22T02:23:17.608Z,13.09
2016-11-22T02:24:29.063Z,13.11
2016-11-22T02:25:40.092Z,13.1
2016-11-22T02:26:51.160Z,13.06
2016-11-22T02:28:02.209Z,13.09
2016-11-22T02:29:13.253Z,13.07
2016-11-22T02:30:24.291Z,13.07
2016-11-22T02:31:35.528Z,13.03
2016-11-22T02:32:46.611Z,13.02
2016-11-22T02:33:57.642Z,12.99
2016-11-22T02:35:08.673Z,12.92
2016-11-22T02:36:19.719Z,12.91
2016-11-22T02:37:30.948Z,12.94
2016-11-22T02:38:42.033Z,12.94
2016-11-22T02:39:53.050Z,12.92
2016-11-22T02:41:04.075Z,12.92
2016-11-22T02:42:15.114Z,12.89
2016-11-22T02:43:26.363Z,12.81
2016-11-22T02:44:37.481Z,12.76
2016-11-22T02:45:48.719Z,12.8
2016-11-22T02:46:59.756Z,12.73
2016-11-22T02:48:10.795Z,12.76
2016-11-22T02:49:21.831Z,12.83
2016-11-22T02:50:32.933Z,12.74
2016-11-22T02:51:43.967Z,12.7
2016-11-22T02:52:54.998Z,12.73
2016-11-22T02:54:06.038Z,12.63
2016-11-22T02:55:17.063Z,12.71
2016-11-22T02:56:28.147Z,12.86
2016-11-22T02:57:39.172Z,12.76
2016-11-22T02:58:50.611Z,12.65
2016-11-22T03:00:01.660Z,12.61
2016-11-22T03:01:12.692Z,12.56
2016-11-22T03:02:23.776Z,12.58
2016-11-22T03:03:34.808Z,12.53
2016-11-22T03:04:45.839Z,12.53
2016-11-22T03:05:56.871Z,12.41
2016-11-22T03:07:08.115Z,12.45
2016-11-22T03:08:19.603Z,12.36
2016-11-22T03:09:30.646Z,12.31
2016-11-22T03:10:41.675Z,12.28
2016-11-22T03:11:52.704Z,12.36
2016-11-22T03:13:03.742Z,12.37
2016-11-22T03:14:14.841Z,12.28
2016-11-22T03:15:25.873Z,12.28
2016-11-22T03:16:36.912Z,12.31
2016-11-22T03:17:47.943Z,12.33
2016-11-22T03:18:58.988Z,12.36
2016-11-22T03:20:10.068Z,12.31
2016-11-22T03:21:21.102Z,12.31
2016-11-22T03:22:32.136Z,12.31
2016-11-22T03:23:43.172Z,12.29
2016-11-22T03:24:54.215Z,12.28
2016-11-22T03:26:05.290Z,12.31
2016-11-22T03:27:16.316Z,12.25
2016-11-22T03:28:27.366Z,12.22
2016-11-22T03:29:38.395Z,12.22
2016-11-22T03:30:49.425Z,12.23
2016-11-22T03:32:00.511Z,12.11
2016-11-22T03:33:11.555Z,12.07
2016-11-22T03:34:22.591Z,12.13
2016-11-22T03:35:33.638Z,12.16
2016-11-22T03:36:44.677Z,12.08
2016-11-22T03:37:56.001Z,12.16
2016-11-22T03:39:07.034Z,12.1
2016-11-22T03:40:18.068Z,12.08
2016-11-22T03:41:29.104Z,12.16
2016-11-22T03:42:40.142Z,12.1
2016-11-22T03:43:51.217Z,12.1
2016-11-22T03:45:02.446Z,12.16
2016-11-22T03:46:13.479Z,12.11
2016-11-22T03:47:24.730Z,12.1
2016-11-22T03:48:35.753Z,12.08
2016-11-22T03:49:46.847Z,12.05
2016-11-22T03:50:57.871Z,12.05
2016-11-22T03:52:08.900Z,12.07
2016-11-22T03:53:19.952Z,12.05
2016-11-22T03:54:31.007Z,12.05
2016-11-22T03:55:42.100Z,12.04
2016-11-22T03:56:53.531Z,12.04
2016-11-22T03:58:04.571Z,12.04
2016-11-22T03:59:15.607Z,12.04
2016-11-22T04:00:26.825Z,12.08
2016-11-22T04:01:38.127Z,12.1
2016-11-22T04:02:49.165Z,12.1
2016-11-22T04:04:00.198Z,12.04
2016-11-22T04:05:11.241Z,12.07
2016-11-22T04:06:22.474Z,12.05
2016-11-22T04:07:33.557Z,12.07
2016-11-22T04:08:44.784Z,12
2016-11-22T04:09:56.227Z,12.05
2016-11-22T04:11:07.257Z,11.91
2016-11-22T04:12:18.283Z,11.98
2016-11-22T04:13:29.360Z,12.03
2016-11-22T04:14:40.387Z,11.95
2016-11-22T04:15:51.423Z,11.94
2016-11-22T04:17:02.662Z,11.91
2016-11-22T04:18:13.701Z,11.89
2016-11-22T04:19:24.778Z,11.89
2016-11-22T04:20:36.220Z,11.98
2016-11-22T04:21:47.453Z,11.88
2016-11-22T04:22:58.480Z,12
2016-11-22T04:24:09.504Z,11.89
2016-11-22T04:25:20.587Z,11.84
2016-11-22T04:26:31.659Z,11.94
2016-11-22T04:27:42.889Z,11.94
2016-11-22T04:28:54.123Z,11.97
2016-11-22T04:30:05.157Z,11.89
2016-11-22T04:31:16.249Z,11.91
2016-11-22T04:32:27.284Z,11.81
2016-11-22T04:33:38.310Z,11.97
2016-11-22T04:34:49.337Z,11.89
2016-11-22T04:36:00.361Z,11.94
2016-11-22T04:37:11.445Z,11.89
2016-11-22T04:38:22.473Z,11.89
2016-11-22T04:39:33.500Z,11.88
2016-11-22T04:40:44.519Z,11.88
2016-11-22T04:41:55.572Z,11.89
2016-11-22T04:43:06.656Z,11.94
2016-11-22T04:44:17.885Z,11.91
2016-11-22T04:45:28.924Z,11.81
2016-11-22T04:46:39.958Z,11.86
2016-11-22T04:47:51.004Z,11.95
2016-11-22T04:49:02.076Z,11.89
2016-11-22T04:50:13.106Z,11.81
2016-11-22T04:51:24.139Z,11.73
2016-11-22T04:52:35.175Z,11.84
2016-11-22T04:53:46.228Z,11.7
2016-11-22T04:54:57.318Z,11.76
2016-11-22T04:56:08.351Z,11.86
2016-11-22T04:57:19.405Z,11.7
2016-11-22T04:58:30.647Z,11.71
2016-11-22T04:59:41.714Z,11.84
2016-11-22T05:00:52.791Z,11.75
2016-11-22T05:02:03.817Z,11.75
2016-11-22T05:03:14.854Z,11.75
2016-11-22T05:04:26.078Z,11.76
2016-11-22T05:05:37.320Z,11.79
2016-11-22T05:06:48.615Z,11.7
2016-11-22T05:07:59.667Z,11.81
2016-11-22T05:09:10.689Z,11.73
2016-11-22T05:10:21.708Z,11.79
2016-11-22T05:11:32.748Z,11.78
2016-11-22T05:12:43.873Z,11.75
2016-11-22T05:13:55.115Z,11.64
2016-11-22T05:15:06.144Z,11.71
2016-11-22T05:16:17.379Z,11.7
2016-11-22T05:17:28.624Z,11.63
2016-11-22T05:18:39.717Z,11.73
2016-11-22T05:19:50.748Z,11.56
2016-11-22T05:21:02.203Z,11.57
2016-11-22T05:22:13.252Z,11.7
2016-11-22T05:23:24.283Z,11.59
2016-11-22T05:24:35.357Z,11.57
2016-11-22T05:25:46.382Z,11.61
2016-11-22T05:26:57.426Z,11.57
2016-11-22T05:28:08.459Z,11.56
2016-11-22T05:29:19.715Z,11.59
2016-11-22T05:30:31.045Z,11.61
2016-11-22T05:31:42.083Z,11.48
2016-11-22T05:32:53.116Z,11.48
2016-11-22T05:34:04.152Z,11.43
2016-11-22T05:35:15.199Z,11.39
2016-11-22T05:36:26.282Z,11.39
2016-11-22T05:37:37.316Z,11.38
2016-11-22T05:38:48.363Z,11.23
2016-11-22T05:39:59.600Z,11.31
2016-11-22T05:41:10.637Z,11.31
2016-11-22T05:42:21.707Z,11.24
2016-11-22T05:43:32.743Z,11.26
2016-11-22T05:44:43.789Z,11.13
2016-11-22T05:45:54.822Z,11.18
2016-11-22T05:47:06.066Z,11.05
2016-11-22T05:48:17.149Z,11.06
2016-11-22T05:49:28.176Z,10.98
2016-11-22T05:50:39.213Z,11.08
2016-11-22T05:51:50.286Z,11.05
2016-11-22T05:53:01.327Z,10.98
2016-11-22T05:54:12.807Z,11.05
2016-11-22T05:55:24.443Z,10.98
2016-11-22T05:56:35.478Z,11.03
2016-11-22T05:57:46.509Z,11.05
2016-11-22T05:58:57.592Z,11.03
2016-11-22T06:00:08.676Z,11.06
2016-11-22T06:01:19.701Z,11.06
2016-11-22T06:02:30.754Z,11.06
2016-11-22T06:03:41.780Z,10.97
2016-11-22T06:04:52.818Z,10.94
2016-11-22T06:06:03.907Z,10.87
2016-11-22T06:07:15.160Z,10.87
2016-11-22T06:08:26.407Z,10.85
2016-11-22T06:09:37.648Z,10.85
2016-11-22T06:10:48.680Z,10.8
2016-11-22T06:11:59.753Z,10.76
2016-11-22T06:13:10.808Z,10.84
2016-11-22T06:14:22.042Z,10.75
2016-11-22T06:15:33.084Z,10.73
2016-11-22T06:16:44.114Z,10.76
2016-11-22T06:17:55.192Z,10.76
2016-11-22T06:19:06.229Z,10.8
2016-11-22T06:20:17.264Z,10.8
2016-11-22T06:21:28.293Z,10.83
2016-11-22T06:22:39.333Z,10.91
2016-11-22T06:23:50.634Z,10.83
2016-11-22T06:25:01.662Z,10.9
2016-11-22T06:26:12.769Z,10.8
2016-11-22T06:27:23.839Z,10.79
2016-11-22T06:28:34.872Z,10.76
2016-11-22T06:29:46.169Z,10.79
2016-11-22T06:30:57.198Z,10.87
2016-11-22T06:32:08.239Z,10.85
2016-11-22T06:33:19.261Z,10.77
2016-11-22T06:34:30.306Z,10.9
2016-11-22T06:35:41.576Z,10.85
2016-11-22T06:36:52.605Z,10.92
2016-11-22T06:38:03.638Z,10.88
2016-11-22T06:39:14.670Z,10.8
2016-11-22T06:40:25.703Z,10.91
2016-11-22T06:41:36.779Z,10.9
2016-11-22T06:42:47.859Z,10.91
2016-11-22T06:43:58.897Z,10.84
2016-11-22T06:45:09.916Z,10.84
2016-11-22T06:46:21.162Z,10.77
2016-11-22T06:47:32.462Z,10.85
2016-11-22T06:48:43.506Z,10.8
2016-11-22T06:49:54.546Z,10.75
2016-11-22T06:51:05.775Z,10.73
2016-11-22T06:52:16.797Z,10.77
2016-11-22T06:53:27.882Z,10.77
2016-11-22T06:54:38.916Z,10.73
2016-11-22T06:55:49.947Z,10.79
2016-11-22T06:57:01.173Z,10.79
2016-11-22T06:58:12.204Z,10.72
2016-11-22T06:59:23.292Z,10.72
2016-11-22T07:00:34.512Z,10.72
2016-11-22T07:01:45.549Z,10.67
2016-11-22T07:02:56.783Z,10.69
2016-11-22T07:04:07.818Z,10.66
2016-11-22T07:05:18.894Z,10.65
2016-11-22T07:06:29.915Z,10.57
2016-11-22T07:07:40.939Z,10.54
2016-11-22T07:08:51.976Z,10.52
2016-11-22T07:10:02.998Z,10.39
2016-11-22T07:11:14.098Z,10.42
2016-11-22T07:12:25.134Z,10.39
2016-11-22T07:13:36.177Z,10.38
2016-11-22T07:14:47.203Z,10.28
2016-11-22T07:15:58.243Z,10.29
2016-11-22T07:17:09.513Z,10.36
2016-11-22T07:18:20.534Z,10.31
2016-11-22T07:19:31.750Z,10.31
2016-11-22T07:20:42.793Z,10.26
2016-11-22T07:21:53.835Z,10.28
2016-11-22T07:23:04.911Z,10.31
2016-11-22T07:24:15.932Z,10.33
2016-11-22T07:25:27.160Z,10.38
2016-11-22T07:26:38.190Z,10.42
2016-11-22T07:27:49.227Z,10.41
2016-11-22T07:29:00.298Z,10.38
2016-11-22T07:30:11.315Z,10.44
2016-11-22T07:31:22.354Z,10.44
2016-11-22T07:32:33.579Z,10.44
2016-11-22T07:33:44.613Z,10.51
2016-11-22T07:34:55.697Z,10.47
2016-11-22T07:36:06.734Z,10.55
2016-11-22T07:37:17.788Z,10.55
2016-11-22T07:38:28.812Z,10.57
2016-11-22T07:39:39.847Z,10.58
2016-11-22T07:40:51.146Z,10.61
2016-11-22T07:42:02.388Z,10.72
2016-11-22T07:43:13.430Z,10.72
2016-11-22T07:44:24.455Z,10.69
2016-11-22T07:45:35.474Z,10.8
2016-11-22T07:46:46.568Z,10.8
2016-11-22T07:47:57.803Z,10.8
2016-11-22T07:49:08.834Z,10.8
2016-11-22T07:50:19.865Z,10.76
2016-11-22T07:51:30.908Z,10.76
2016-11-22T07:52:41.998Z,10.77
2016-11-22T07:53:53.046Z,10.73
2016-11-22T07:55:04.080Z,10.79
2016-11-22T07:56:15.107Z,10.76
2016-11-22T07:57:26.126Z,10.75
2016-11-22T07:58:37.204Z,10.72
2016-11-22T07:59:48.267Z,10.76
2016-11-22T08:00:59.297Z,10.77
2016-11-22T08:02:10.327Z,10.77
2016-11-22T08:03:21.357Z,10.79
2016-11-22T08:04:32.642Z,10.67
2016-11-22T08:05:43.704Z,10.8
2016-11-22T08:06:54.739Z,10.8
2016-11-22T08:08:05.967Z,10.8
2016-11-22T08:09:17.184Z,10.73
2016-11-22T08:10:28.225Z,10.79
2016-11-22T08:11:39.256Z,10.76
2016-11-22T08:12:50.283Z,10.8
2016-11-22T08:14:01.306Z,10.79
2016-11-22T08:15:12.586Z,10.83
2016-11-22T08:16:23.823Z,10.8
2016-11-22T08:17:34.860Z,10.9
2016-11-22T08:18:45.887Z,10.9
2016-11-22T08:19:56.912Z,10.92
2016-11-22T08:21:08.024Z,11.06
2016-11-22T08:22:19.272Z,11.05
2016-11-22T08:23:30.313Z,11.02
2016-11-22T08:24:41.331Z,11.03
2016-11-22T08:25:52.371Z,11.12
2016-11-22T08:27:03.463Z,11.1
2016-11-22T08:28:14.513Z,11.21
2016-11-22T08:29:25.539Z,11.26
2016-11-22T08:30:36.576Z,11.21
2016-11-22T08:31:47.605Z,11.33
2016-11-22T08:32:58.686Z,11.45
2016-11-22T08:34:09.925Z,11.52
2016-11-22T08:35:20.956Z,11.61
2016-11-22T08:36:31.980Z,11.52
2016-11-22T08:37:43.014Z,11.68
2016-11-22T08:38:54.094Z,11.7
2016-11-22T08:40:05.127Z,11.76
2016-11-22T08:41:16.159Z,11.73
2016-11-22T08:42:27.190Z,11.85
2016-11-22T08:43:38.226Z,11.88
2016-11-22T08:44:49.321Z,11.97
2016-11-22T08:46:00.365Z,12.16
2016-11-22T08:47:11.407Z,12.15
2016-11-22T08:48:22.441Z,12.22
2016-11-22T08:49:33.474Z,12.36
2016-11-22T08:50:44.557Z,12.26
2016-11-22T08:51:55.799Z,12.37
2016-11-22T08:53:06.836Z,12.41
2016-11-22T08:54:18.101Z,12.4
2016-11-22T08:55:29.337Z,12.52
2016-11-22T08:56:40.626Z,12.48
2016-11-22T08:57:51.684Z,12.45
2016-11-22T08:59:02.712Z,12.44
2016-11-22T09:00:13.771Z,12.45
2016-11-22T09:01:24.802Z,12.45
2016-11-22T09:02:35.885Z,12.44
2016-11-22T09:03:46.912Z,12.41
2016-11-22T09:04:57.945Z,12.41
2016-11-22T09:06:08.979Z,12.41
2016-11-22T09:07:20.016Z,12.41
2016-11-22T09:08:31.095Z,12.44
2016-11-22T09:09:42.133Z,12.41
2016-11-22T09:10:53.171Z,12.43
2016-11-22T09:12:04.221Z,12.41
2016-11-22T09:13:15.246Z,12.47
2016-11-22T09:14:26.264Z,12.44
2016-11-22T09:15:37.301Z,12.45
2016-11-22T09:16:48.347Z,12.56
2016-11-22T09:17:59.379Z,12.44
2016-11-22T09:19:10.464Z,12.45
2016-11-22T09:20:21.501Z,12.51
2016-11-22T09:21:32.538Z,12.53
2016-11-22T09:22:43.567Z,12.53
2016-11-22T09:23:54.591Z,12.58
2016-11-22T09:25:05.669Z,12.53
2016-11-22T09:26:16.704Z,12.48
2016-11-22T09:27:27.743Z,12.55
2016-11-22T09:28:38.773Z,12.56
2016-11-22T09:29:49.797Z,12.58
2016-11-22T09:31:00.882Z,12.58
2016-11-22T09:32:11.959Z,12.65
2016-11-22T09:33:22.992Z,12.59
2016-11-22T09:34:34.022Z,12.58
2016-11-22T09:35:45.061Z,12.59
2016-11-22T09:36:56.348Z,12.71
2016-11-22T09:38:07.596Z,12.92
2016-11-22T09:39:18.848Z,13.03
2016-11-22T09:40:29.886Z,13.19
2016-11-22T09:41:40.928Z,13.36
2016-11-22T09:42:52.019Z,13.29
2016-11-22T09:44:03.050Z,13.39
2016-11-22T09:45:14.311Z,13.45
2016-11-22T09:46:25.358Z,13.73
2016-11-22T09:47:36.389Z,13.88
2016-11-22T09:48:47.679Z,13.91
2016-11-22T09:49:58.734Z,14.01
2016-11-22T09:51:09.761Z,14.02
2016-11-22T09:52:21.201Z,14.09
2016-11-22T09:53:32.234Z,14.06
2016-11-22T09:54:43.329Z,14.06
2016-11-22T09:55:54.407Z,13.97
2016-11-22T09:57:05.452Z,13.99
2016-11-22T09:58:16.491Z,13.97
2016-11-22T09:59:27.523Z,13.88
2016-11-22T10:00:38.816Z,13.88
2016-11-22T10:01:49.844Z,13.87
2016-11-22T10:03:01.074Z,14.05
2016-11-22T10:04:12.104Z,14.06
2016-11-22T10:05:23.147Z,14.11
2016-11-22T10:06:34.251Z,14.09
2016-11-22T10:07:45.283Z,14.24
2016-11-22T10:08:56.319Z,14.27
2016-11-22T10:10:07.353Z,14.39
2016-11-22T10:11:18.398Z,14.36
2016-11-22T10:12:29.488Z,14.48
2016-11-22T10:13:40.567Z,14.48
2016-11-22T10:14:51.600Z,14.57
2016-11-22T10:16:02.634Z,14.51
2016-11-22T10:17:13.893Z,14.6
2016-11-22T10:18:24.980Z,14.59
2016-11-22T10:19:36.012Z,14.67
2016-11-22T10:20:47.260Z,14.59
2016-11-22T10:21:58.301Z,14.6
2016-11-22T10:23:09.333Z,14.61
2016-11-22T10:24:20.444Z,14.53
2016-11-22T10:25:31.488Z,14.63
2016-11-22T10:26:42.534Z,14.63
2016-11-22T10:27:53.614Z,14.89
2016-11-22T10:29:04.659Z,14.93
2016-11-22T10:30:15.760Z,14.94
2016-11-22T10:31:26.987Z,14.87
2016-11-22T10:32:38.020Z,14.94
2016-11-22T10:33:49.389Z,14.85
2016-11-22T10:35:00.429Z,14.9
2016-11-22T10:36:11.519Z,14.93
2016-11-22T10:37:22.563Z,14.87
2016-11-22T10:38:33.595Z,14.87
2016-11-22T10:39:44.833Z,14.89
2016-11-22T10:40:55.888Z,14.7
2016-11-22T10:42:06.976Z,14.66
2016-11-22T10:43:18.019Z,14.61
2016-11-22T10:44:29.057Z,14.56
2016-11-22T10:45:40.082Z,14.51
2016-11-22T10:46:51.120Z,14.46
2016-11-22T10:48:02.212Z,14.36
2016-11-22T10:49:13.246Z,14.3
2016-11-22T10:50:24.272Z,14.33
2016-11-22T10:51:35.303Z,14.21
2016-11-22T10:52:46.442Z,14.2
2016-11-22T10:53:57.521Z,14.24
2016-11-22T10:55:08.546Z,14.3
2016-11-22T10:56:19.584Z,14.19
2016-11-22T10:57:30.632Z,14.21
2016-11-22T10:58:41.655Z,14.13
2016-11-22T10:59:52.760Z,14.21
2016-11-22T11:01:04.004Z,14.21
2016-11-22T11:02:15.247Z,14.19
2016-11-22T11:03:26.272Z,14.3
2016-11-22T11:04:37.321Z,14.46
2016-11-22T11:05:48.397Z,14.56
2016-11-22T11:06:59.443Z,14.61
2016-11-22T11:08:10.526Z,14.49
2016-11-22T11:09:21.559Z,14.52
2016-11-22T11:10:32.608Z,14.41
2016-11-22T11:11:43.684Z,14.21
2016-11-22T11:12:54.719Z,14.27
2016-11-22T11:14:05.963Z,14.13
2016-11-22T11:15:17.201Z,14.09
2016-11-22T11:16:28.250Z,14.06
2016-11-22T11:17:39.341Z,14.06
2016-11-22T11:18:50.369Z,14.09
2016-11-22T11:20:01.395Z,14.02
2016-11-22T11:21:12.438Z,14.02
2016-11-22T11:22:23.467Z,14.03
2016-11-22T11:23:34.543Z,14.06
2016-11-22T11:24:45.578Z,14.05
2016-11-22T11:25:56.617Z,14.02
2016-11-22T11:27:07.866Z,14.01
2016-11-22T11:28:19.115Z,14.06
2016-11-22T11:29:30.201Z,14.11
2016-11-22T11:30:41.244Z,14.08
2016-11-22T11:31:52.292Z,14.11
2016-11-22T11:33:03.346Z,14.19
2016-11-22T11:34:14.399Z,14.26
2016-11-22T11:35:25.689Z,14.46
2016-11-22T11:36:36.742Z,14.49
2016-11-22T11:37:47.973Z,14.59
2016-11-22T11:38:59.007Z,14.59
2016-11-22T11:40:10.044Z,14.67
2016-11-22T11:41:21.129Z,14.77
2016-11-22T11:42:32.395Z,14.75
2016-11-22T11:43:43.436Z,14.79
2016-11-22T11:44:54.476Z,14.61
2016-11-22T11:46:05.508Z,14.79
2016-11-22T11:47:16.598Z,14.82
2016-11-22T11:48:27.641Z,14.83
2016-11-22T11:49:38.869Z,14.97
2016-11-22T11:50:49.911Z,14.83
2016-11-22T11:52:00.963Z,14.98
2016-11-22T11:53:12.050Z,14.94
2016-11-22T11:54:23.090Z,14.86
2016-11-22T11:55:34.529Z,14.83
2016-11-22T11:56:45.559Z,14.94
2016-11-22T11:57:56.584Z,14.89
2016-11-22T11:59:07.874Z,15
2016-11-22T12:00:18.910Z,15.07
2016-11-22T12:01:29.940Z,15.2
2016-11-22T12:02:41.221Z,15.05
2016-11-22T12:03:52.258Z,15.05
2016-11-22T12:05:03.537Z,15.2
2016-11-22T12:06:14.568Z,15.18
2016-11-22T12:07:25.610Z,15.16
2016-11-22T12:08:36.643Z,15.13
2016-11-22T12:09:47.698Z,14.94
2016-11-22T12:10:58.951Z,14.94
2016-11-22T12:12:09.979Z,14.85
2016-11-22T12:13:21.004Z,14.86
2016-11-22T12:14:32.275Z,14.77
2016-11-22T12:15:43.365Z,14.7
2016-11-22T12:16:54.407Z,14.69
2016-11-22T12:18:05.437Z,14.53
2016-11-22T12:19:16.463Z,14.66
2016-11-22T12:20:27.713Z,14.53
2016-11-22T12:21:38.824Z,14.56
2016-11-22T12:22:49.867Z,14.53
2016-11-22T12:24:00.912Z,14.46
2016-11-22T12:25:11.966Z,14.48
2016-11-22T12:26:23.194Z,14.56
2016-11-22T12:27:34.283Z,14.6
2016-11-22T12:28:45.341Z,14.51
2016-11-22T12:29:56.368Z,14.46
2016-11-22T12:31:07.596Z,14.38
2016-11-22T12:32:18.651Z,14.48
2016-11-22T12:33:29.729Z,14.42
2016-11-22T12:34:40.775Z,14.38
2016-11-22T12:35:51.796Z,14.45
2016-11-22T12:37:02.818Z,14.45
2016-11-22T12:38:13.839Z,14.34
2016-11-22T12:39:25.128Z,14.34
2016-11-22T12:40:36.162Z,14.36
2016-11-22T12:41:47.216Z,14.3
2016-11-22T12:42:58.254Z,14.31
2016-11-22T12:44:09.294Z,14.31
2016-11-22T12:45:20.372Z,14.2
2016-11-22T12:46:31.601Z,14.23
2016-11-22T12:47:42.852Z,14.21
2016-11-22T12:48:54.256Z,14.23
2016-11-22T12:50:05.287Z,14.26
2016-11-22T12:51:16.389Z,14.21
2016-11-22T12:52:27.448Z,14.28
2016-11-22T12:53:38.465Z,14.36
2016-11-22T12:54:49.498Z,14.3
2016-11-22T12:56:00.532Z,14.46
2016-11-22T12:57:11.808Z,14.44
2016-11-22T12:58:22.845Z,14.48
2016-11-22T12:59:34.289Z,14.48
2016-11-22T13:00:45.315Z,14.34
2016-11-22T13:01:56.570Z,14.3
2016-11-22T13:03:07.650Z,14.28
2016-11-22T13:04:18.685Z,14.24
2016-11-22T13:05:29.721Z,14.26
2016-11-22T13:06:40.748Z,14.21
2016-11-22T13:07:51.874Z,14.15
2016-11-22T13:09:02.946Z,14.16
2016-11-22T13:10:14.068Z,14.13
2016-11-22T13:11:25.116Z,14.13
2016-11-22T13:12:36.150Z,14.05
2016-11-22T13:13:47.182Z,14.08
2016-11-22T13:14:58.257Z,14.15
2016-11-22T13:16:09.497Z,14.23
2016-11-22T13:17:20.524Z,14.23
2016-11-22T13:18:31.563Z,14.33
2016-11-22T13:19:42.605Z,14.49
2016-11-22T13:20:53.676Z,14.53
2016-11-22T13:22:04.735Z,14.49
2016-11-22T13:23:15.778Z,14.52
2016-11-22T13:24:26.817Z,14.51
2016-11-22T13:25:37.849Z,14.45
2016-11-22T13:26:48.924Z,14.51
2016-11-22T13:27:59.958Z,14.46
2016-11-22T13:29:11.008Z,14.49
2016-11-22T13:30:22.247Z,14.56
2016-11-22T13:31:33.281Z,14.49
2016-11-22T13:32:44.614Z,14.57
2016-11-22T13:33:55.879Z,14.52
2016-11-22T13:35:06.928Z,14.52
2016-11-22T13:36:17.954Z,14.51
2016-11-22T13:37:29.006Z,14.52
2016-11-22T13:38:40.103Z,14.56
2016-11-22T13:39:51.142Z,14.53
2016-11-22T13:41:02.174Z,14.46
2016-11-22T13:42:13.615Z,14.51
2016-11-22T13:43:24.658Z,14.51
2016-11-22T13:44:35.940Z,14.48
2016-11-22T13:45:46.962Z,14.51
2016-11-22T13:46:57.991Z,14.48
2016-11-22T13:48:09.019Z,14.46
2016-11-22T13:49:20.058Z,14.39
2016-11-22T13:50:31.190Z,14.33
2016-11-22T13:51:42.216Z,14.34
2016-11-22T13:52:53.463Z,14.39
2016-11-22T13:54:04.516Z,14.27
2016-11-22T13:55:15.541Z,14.19
2016-11-22T13:56:26.623Z,14.28
2016-11-22T13:57:37.648Z,14.16
2016-11-22T13:58:48.669Z,14.11
2016-11-22T13:59:59.714Z,14.05
2016-11-22T14:01:10.769Z,13.99
2016-11-22T14:02:22.060Z,13.95
2016-11-22T14:03:33.087Z,13.76
2016-11-22T14:04:44.148Z,13.79
2016-11-22T14:05:55.186Z,13.87
2016-11-22T14:07:06.237Z,13.73
2016-11-22T14:08:17.324Z,13.75
2016-11-22T14:09:28.352Z,13.79
2016-11-22T14:10:39.379Z,13.72
2016-11-22T14:11:50.419Z,13.72
2016-11-22T14:13:01.471Z,13.65
2016-11-22T14:14:12.542Z,13.75
2016-11-22T14:15:23.595Z,13.72
2016-11-22T14:16:34.625Z,13.69
2016-11-22T14:17:45.656Z,13.6
2016-11-22T14:18:56.708Z,13.58
2016-11-22T14:20:07.801Z,13.57
2016-11-22T14:21:18.831Z,13.65
2016-11-22T14:22:29.880Z,13.55
2016-11-22T14:23:40.922Z,13.55
2016-11-22T14:24:51.964Z,13.54
2016-11-22T14:26:03.036Z,13.44
2016-11-22T14:27:14.269Z,13.48
2016-11-22T14:28:25.299Z,13.51
2016-11-22T14:29:36.321Z,13.48
2016-11-22T14:30:47.349Z,13.42
2016-11-22T14:31:58.422Z,13.47
2016-11-22T14:33:09.456Z,13.42
2016-11-22T14:34:20.493Z,13.47
2016-11-22T14:35:31.508Z,13.31
2016-11-22T14:36:42.547Z,13.39
2016-11-22T14:37:53.833Z,13.4
2016-11-22T14:39:04.854Z,13.28
2016-11-22T14:40:15.884Z,13.25
2016-11-22T14:41:27.113Z,13.35
2016-11-22T14:42:38.151Z,13.37
2016-11-22T14:43:49.231Z,13.28
2016-11-22T14:45:00.270Z,13.29
2016-11-22T14:46:11.298Z,13.29
2016-11-22T14:47:22.345Z,13.32
2016-11-22T14:48:33.386Z,13.25
2016-11-22T14:49:44.485Z,13.21
2016-11-22T14:50:55.561Z,13.17
2016-11-22T14:52:06.598Z,13.21
2016-11-22T14:53:17.622Z,13.2
2016-11-22T14:54:28.659Z,13.2
2016-11-22T14:55:39.956Z,13.19
2016-11-22T14:56:50.983Z,13.14
2016-11-22T14:58:02.028Z,13.14
2016-11-22T14:59:13.063Z,13.13
2016-11-22T15:00:24.091Z,13.13
2016-11-22T15:01:35.180Z,13.07
2016-11-22T15:02:46.246Z,12.99
2016-11-22T15:03:57.880Z,13.01
2016-11-22T15:05:09.118Z,12.99
2016-11-22T15:06:20.350Z,12.95
2016-11-22T15:07:31.431Z,12.91
2016-11-22T15:08:42.461Z,12.99
2016-11-22T15:09:53.492Z,12.99
2016-11-22T15:11:04.532Z,12.95
2016-11-22T15:12:15.578Z,12.98
2016-11-22T15:13:26.654Z,12.91
2016-11-22T15:14:37.684Z,12.83
2016-11-22T15:15:48.725Z,12.91
2016-11-22T15:16:59.773Z,12.84
2016-11-22T15:18:11.007Z,12.83
2016-11-22T15:19:22.292Z,12.86